createdAt,value
2023-02-09T00:00:02.302Z,13.45
2023-02-09T00:02:29.456Z,13.00
2023-02-09T00:04:56.332Z,12.95
2023-02-09T00:07:23.027Z,14.13
2023-02-09T00:09:51.248Z,13.38
2023-02-09T00:12:36.915Z,12.32
2023-02-09T00:15:04.907Z,11.40
2023-02-09T00:17:33.527Z,10.75
2023-02-09T00:20:00.203Z,10.38
2023-02-09T00:22:26.916Z,10.20
2023-02-09T00:24:55.508Z,11.07
2023-02-09T00:27:23.182Z,11.23
2023-02-09T00:29:49.933Z,10.55
2023-02-09T00:32:16.774Z,9.38
2023-02-09T00:34:43.621Z,9.38
2023-02-09T00:37:10.396Z,9.98
2023-02-09T00:39:37.084Z,10.50
2023-02-09T00:42:06.429Z,9.93
2023-02-09T00:44:38.440Z,9.10
2023-02-09T00:47:06.917Z,9.70
2023-02-09T00:49:33.930Z,9.40
2023-02-09T00:52:00.647Z,10.30
2023-02-09T00:54:27.381Z,11.85
2023-02-09T00:56:54.064Z,11.90
2023-02-09T00:59:20.849Z,11.30
2023-02-09T01:01:47.548Z,13.27
2023-02-09T01:04:14.326Z,12.55
2023-02-09T01:06:41.186Z,12.95
2023-02-09T01:09:07.955Z,11.00
2023-02-09T01:11:34.700Z,10.02
2023-02-09T01:14:04.187Z,9.30
2023-02-09T01:16:32.015Z,11.20
2023-02-09T01:19:00.988Z,10.70
2023-02-09T01:21:28.279Z,9.45
2023-02-09T01:23:55.134Z,9.50
2023-02-09T01:26:22.154Z,10.88
2023-02-09T01:28:51.167Z,9.73
2023-02-09T01:31:33.248Z,9.88
2023-02-09T01:34:01.804Z,12.52
2023-02-09T01:36:29.878Z,11.07
2023-02-09T01:38:58.845Z,10.80
2023-02-09T01:41:26.033Z,9.82
2023-02-09T01:43:54.942Z,10.90
2023-02-09T01:46:24.008Z,10.77
2023-02-09T01:48:54.763Z,10.00
2023-02-09T01:51:22.234Z,9.35
2023-02-09T01:53:49.333Z,9.93
2023-02-09T01:56:21.308Z,9.50
2023-02-09T01:58:49.496Z,9.32
2023-02-09T02:01:17.067Z,9.70
2023-02-09T02:03:45.083Z,9.50
2023-02-09T02:06:14.211Z,9.23
2023-02-09T02:08:57.736Z,9.63
2023-02-09T02:11:27.640Z,7.63
2023-02-09T02:13:54.499Z,8.25
2023-02-09T02:16:29.828Z,8.40
2023-02-09T02:19:14.789Z,7.45
2023-02-09T02:22:11.774Z,8.13
2023-02-09T02:25:15.570Z,8.40
2023-02-09T02:28:01.222Z,9.32
2023-02-09T02:30:56.807Z,8.95
2023-02-09T02:33:32.747Z,8.80
2023-02-09T02:36:30.892Z,9.43
2023-02-09T02:39:03.027Z,8.75
2023-02-09T02:42:09.562Z,9.63
2023-02-09T02:44:40.496Z,8.90
2023-02-09T02:47:09.975Z,8.23
2023-02-09T02:49:49.147Z,8.00
2023-02-09T02:52:16.067Z,7.85
2023-02-09T02:54:49.218Z,10.10
2023-02-09T02:57:19.956Z,7.38
2023-02-09T02:59:53.577Z,6.97
2023-02-09T03:02:25.389Z,8.68
2023-02-09T03:04:54.480Z,8.25
2023-02-09T03:07:21.308Z,7.43
2023-02-09T03:09:53.296Z,7.50
2023-02-09T03:12:46.337Z,9.40
2023-02-09T03:19:25.252Z,8.50
2023-02-09T03:22:01.468Z,7.20
2023-02-09T03:24:31.230Z,7.30
2023-02-09T03:27:09.371Z,8.38
2023-02-09T03:29:37.652Z,7.75
2023-02-09T03:32:05.242Z,8.77
2023-02-09T03:34:32.165Z,7.95
2023-02-09T03:36:59.100Z,9.30
2023-02-09T03:39:25.843Z,7.50
2023-02-09T03:41:52.624Z,7.43
2023-02-09T03:44:28.519Z,8.00
2023-02-09T03:47:07.616Z,7.68
2023-02-09T03:49:36.556Z,7.07
2023-02-09T03:52:03.881Z,7.47
2023-02-09T03:54:31.807Z,8.45
2023-02-09T03:56:59.923Z,7.65
2023-02-09T03:59:27.720Z,7.93
2023-02-09T04:01:57.535Z,7.72
2023-02-09T04:04:26.069Z,8.30
2023-02-09T04:06:53.012Z,6.70
2023-02-09T04:09:20.060Z,7.47
2023-02-09T04:11:47.276Z,8.05
2023-02-09T04:14:14.698Z,6.90
2023-02-09T04:16:41.497Z,7.97
2023-02-09T04:19:10.482Z,8.73
2023-02-09T04:21:38.504Z,7.30
2023-02-09T04:24:06.879Z,6.97
2023-02-09T04:26:34.236Z,7.53
2023-02-09T04:29:01.029Z,8.07
2023-02-09T04:31:27.866Z,7.65
2023-02-09T04:33:54.800Z,8.50
2023-02-09T04:36:23.359Z,7.15
2023-02-09T04:38:50.584Z,7.03
2023-02-09T04:41:17.667Z,7.78
2023-02-09T04:43:46.048Z,6.50
2023-02-09T04:46:17.553Z,7.30
2023-02-09T04:48:44.943Z,7.22
2023-02-09T04:51:12.363Z,6.35
2023-02-09T04:53:39.179Z,7.72
2023-02-09T04:56:06.676Z,7.45
2023-02-09T04:58:51.914Z,7.60
2023-02-09T05:01:22.197Z,6.40
2023-02-09T05:03:49.049Z,7.20
2023-02-09T05:06:15.862Z,6.85
2023-02-09T05:08:42.919Z,6.95
2023-02-09T05:11:10.040Z,7.75
2023-02-09T05:13:36.894Z,7.65
2023-02-09T05:16:08.563Z,7.55
2023-02-09T05:18:36.576Z,7.25
2023-02-09T05:21:03.785Z,7.38
2023-02-09T05:23:31.307Z,7.88
2023-02-09T05:25:58.189Z,8.40
2023-02-09T05:28:25.750Z,7.38
2023-02-09T05:30:53.939Z,7.60
2023-02-09T05:33:22.650Z,7.75
2023-02-09T05:35:51.350Z,7.20
2023-02-09T05:38:18.705Z,8.15
2023-02-09T05:40:46.107Z,7.95
2023-02-09T05:43:13.210Z,7.43
2023-02-09T05:45:40.095Z,7.35
2023-02-09T05:48:06.908Z,7.57
2023-02-09T05:50:35.703Z,6.93
2023-02-09T05:53:02.541Z,6.95
2023-02-09T05:55:29.439Z,6.55
2023-02-09T05:57:56.305Z,6.85
2023-02-09T06:00:25.006Z,6.60
2023-02-09T06:02:51.911Z,7.13
2023-02-09T06:05:20.834Z,7.15
2023-02-09T06:07:48.112Z,6.82
2023-02-09T06:10:14.967Z,7.32
2023-02-09T06:12:41.681Z,6.03
2023-02-09T06:15:08.778Z,6.70
2023-02-09T06:17:35.598Z,7.63
2023-02-09T06:20:02.921Z,23.55
2023-02-09T06:22:34.351Z,25.40
2023-02-09T06:25:01.112Z,19.20
2023-02-09T06:27:27.993Z,11.57
2023-02-09T06:29:54.748Z,10.18
2023-02-09T06:32:21.551Z,9.52
2023-02-09T06:34:48.300Z,8.50
2023-02-09T06:37:15.018Z,9.73
2023-02-09T06:39:41.764Z,8.02
2023-02-09T06:42:08.622Z,8.48
2023-02-09T06:44:35.405Z,8.77
2023-02-09T06:47:02.204Z,7.28
2023-02-09T06:49:28.968Z,7.32
2023-02-09T06:51:55.845Z,8.48
2023-02-09T06:54:22.836Z,9.32
2023-02-09T06:56:49.705Z,8.13
2023-02-09T06:59:16.515Z,6.80
2023-02-09T07:01:43.474Z,6.97
2023-02-09T07:04:10.245Z,8.35
2023-02-09T07:06:36.952Z,8.07
2023-02-09T07:09:03.912Z,7.65
2023-02-09T07:11:30.689Z,6.32
2023-02-09T07:13:57.555Z,7.63
2023-02-09T07:16:24.398Z,9.18
2023-02-09T07:18:51.360Z,8.90
2023-02-09T07:21:20.067Z,7.60
2023-02-09T07:23:47.805Z,8.13
2023-02-09T07:26:17.220Z,10.13
2023-02-09T07:28:44.146Z,9.73
2023-02-09T07:31:13.390Z,10.23
2023-02-09T07:33:40.325Z,14.52
2023-02-09T07:36:10.093Z,17.25
2023-02-09T07:38:38.629Z,13.48
2023-02-09T07:41:07.787Z,15.88
2023-02-09T07:43:34.828Z,12.10
2023-02-09T07:46:03.702Z,10.77
2023-02-09T07:48:31.136Z,12.57
2023-02-09T07:50:58.162Z,14.18
2023-02-09T07:53:24.997Z,13.48
2023-02-09T07:55:51.959Z,12.45
2023-02-09T07:58:20.220Z,11.60
2023-02-09T08:00:48.428Z,12.13
2023-02-09T08:03:18.225Z,12.07
2023-02-09T08:06:20.220Z,12.70
2023-02-09T08:08:49.114Z,10.50
2023-02-09T08:11:26.166Z,11.35
2023-02-09T08:13:55.681Z,10.60
2023-02-09T08:16:28.155Z,8.43
2023-02-09T08:19:00.243Z,10.32
2023-02-09T08:21:29.480Z,9.30
2023-02-09T08:23:57.868Z,9.60
2023-02-09T08:26:24.694Z,11.82
2023-02-09T08:28:53.352Z,10.43
2023-02-09T08:31:22.026Z,12.25
2023-02-09T08:33:50.430Z,11.52
2023-02-09T08:36:19.076Z,15.02
2023-02-09T08:38:46.252Z,14.52
2023-02-09T08:41:15.299Z,11.88
2023-02-09T08:43:42.311Z,11.95
2023-02-09T08:46:14.111Z,11.85
2023-02-09T08:48:43.446Z,12.98
2023-02-09T08:51:11.559Z,14.40
2023-02-09T08:53:52.543Z,17.90
2023-02-09T08:56:20.778Z,14.85
2023-02-09T08:58:47.819Z,10.45
2023-02-09T09:01:14.665Z,11.70
2023-02-09T09:03:42.283Z,10.38
2023-02-09T09:06:12.016Z,11.20
2023-02-09T09:08:40.209Z,11.82
2023-02-09T09:11:07.547Z,12.27
2023-02-09T09:13:34.392Z,11.18
2023-02-09T09:16:03.151Z,10.93
2023-02-09T09:18:31.568Z,11.93
2023-02-09T09:20:58.406Z,10.43
2023-02-09T09:23:25.138Z,10.48
2023-02-09T09:25:52.009Z,9.35
2023-02-09T09:28:18.929Z,9.27
2023-02-09T09:30:45.711Z,10.95
2023-02-09T09:33:12.512Z,10.73
2023-02-09T09:35:39.309Z,13.27
2023-02-09T09:38:06.009Z,11.98
2023-02-09T09:40:36.252Z,12.15
2023-02-09T09:43:14.255Z,12.43
2023-02-09T09:45:41.498Z,11.27
2023-02-09T09:48:25.078Z,13.35
2023-02-09T09:50:58.508Z,12.23
2023-02-09T09:53:33.373Z,12.15
2023-02-09T09:56:05.061Z,12.45
2023-02-09T09:58:33.314Z,10.98
2023-02-09T10:01:00.228Z,10.88
2023-02-09T10:03:27.437Z,13.15
2023-02-09T10:05:59.779Z,12.45
2023-02-09T10:08:38.062Z,13.73
2023-02-09T10:11:09.928Z,12.27
2023-02-09T10:13:56.961Z,15.20
2023-02-09T10:16:30.397Z,13.98
2023-02-09T10:19:02.493Z,15.20
2023-02-09T10:21:35.782Z,13.88
2023-02-09T10:24:02.436Z,15.27
2023-02-09T10:26:32.256Z,14.48
2023-02-09T10:29:07.542Z,12.02
2023-02-09T10:31:41.626Z,13.63
2023-02-09T10:34:08.342Z,15.10
2023-02-09T10:36:40.196Z,14.60
2023-02-09T10:39:20.411Z,14.70
2023-02-09T10:41:53.546Z,14.68
2023-02-09T10:44:26.633Z,14.77
2023-02-09T10:47:27.303Z,15.20
2023-02-09T10:50:10.257Z,14.60
2023-02-09T10:52:41.785Z,15.20
2023-02-09T10:55:25.778Z,15.25
2023-02-09T10:58:03.083Z,14.98
2023-02-09T11:00:37.482Z,15.95
2023-02-09T11:03:15.931Z,15.93
2023-02-09T11:05:46.105Z,16.07
2023-02-09T11:08:20.708Z,15.63
2023-02-09T11:11:02.576Z,17.03
2023-02-09T11:13:31.548Z,15.90
2023-02-09T11:16:18.266Z,15.80
2023-02-09T11:18:50.137Z,14.80
2023-02-09T11:21:45.948Z,17.60
2023-02-09T11:24:39.848Z,14.67
2023-02-09T11:27:23.783Z,17.13
2023-02-09T11:30:02.484Z,18.43
2023-02-09T11:32:39.262Z,17.67
2023-02-09T11:35:11.713Z,18.10
2023-02-09T11:38:02.288Z,19.23
2023-02-09T11:40:37.524Z,17.97
2023-02-09T11:43:10.355Z,20.00
2023-02-09T11:45:43.112Z,17.33
2023-02-09T11:48:31.788Z,18.60
2023-02-09T11:51:23.529Z,18.50
2023-02-09T11:54:15.548Z,17.47
2023-02-09T11:56:46.693Z,16.93
2023-02-09T11:59:31.198Z,18.40
2023-02-09T12:02:35.473Z,19.40
2023-02-09T12:05:02.950Z,18.97
2023-02-09T12:07:44.571Z,20.00
2023-02-09T12:10:28.520Z,17.80
2023-02-09T12:13:13.756Z,18.77
2023-02-09T12:15:43.489Z,18.60
2023-02-09T12:18:18.917Z,19.13
2023-02-09T12:20:48.656Z,19.53
2023-02-09T12:23:35.496Z,19.30
2023-02-09T12:26:11.097Z,17.93
2023-02-09T12:29:03.383Z,19.10
2023-02-09T12:31:31.940Z,20.53
2023-02-09T12:33:58.706Z,18.63
2023-02-09T12:36:28.297Z,20.17
2023-02-09T12:39:04.612Z,19.33
2023-02-09T12:41:34.597Z,19.90
2023-02-09T12:44:10.364Z,19.37
2023-02-09T12:46:46.778Z,19.07
2023-02-09T12:49:20.819Z,18.23
2023-02-09T12:51:50.691Z,18.97
2023-02-09T12:54:31.860Z,20.20
2023-02-09T12:57:17.300Z,17.80
2023-02-09T12:59:52.909Z,18.80
2023-02-09T13:02:37.058Z,18.83
2023-02-09T13:05:34.107Z,18.00
2023-02-09T13:08:16.356Z,17.63
2023-02-09T13:10:43.056Z,17.30
2023-02-09T13:13:12.795Z,16.27
2023-02-09T13:15:54.244Z,16.00
2023-02-09T13:18:28.710Z,16.70
2023-02-09T13:21:14.179Z,15.93
2023-02-09T13:24:02.796Z,16.20
2023-02-09T13:26:33.897Z,15.50
2023-02-09T13:29:21.339Z,17.50
2023-02-09T13:32:07.430Z,16.30
2023-02-09T13:34:59.111Z,15.60
2023-02-09T13:37:54.628Z,17.27
2023-02-09T13:40:28.184Z,16.87
2023-02-09T13:43:11.437Z,17.10
2023-02-09T13:45:49.069Z,17.73
2023-02-09T13:48:37.757Z,17.80
2023-02-09T13:51:15.643Z,16.20
2023-02-09T13:53:59.622Z,18.30
2023-02-09T13:56:27.365Z,16.27
2023-02-09T13:58:55.078Z,16.67
2023-02-09T14:01:34.764Z,15.50
2023-02-09T14:04:16.084Z,17.20
2023-02-09T14:07:08.900Z,16.67
2023-02-09T14:09:50.338Z,16.30
2023-02-09T14:12:46.797Z,16.43
2023-02-09T14:15:33.315Z,16.60
2023-02-09T14:18:00.154Z,17.93
2023-02-09T14:20:26.977Z,17.13
2023-02-09T14:23:01.498Z,18.17
2023-02-09T14:25:30.572Z,16.43
2023-02-09T14:27:58.264Z,16.90
2023-02-09T14:30:32.215Z,18.00
2023-02-09T14:33:03.345Z,16.40
2023-02-09T14:35:36.166Z,15.83
2023-02-09T14:38:03.596Z,17.07
2023-02-09T14:40:36.980Z,17.10
2023-02-09T14:43:12.355Z,17.13
2023-02-09T14:45:45.349Z,15.97
2023-02-09T14:48:31.553Z,16.50
2023-02-09T14:51:01.591Z,15.70
2023-02-09T14:53:31.125Z,17.87
2023-02-09T14:55:58.767Z,16.83
2023-02-09T14:58:28.831Z,17.50
2023-02-09T15:00:57.625Z,17.50
2023-02-09T15:03:24.808Z,15.67
2023-02-09T15:05:55.381Z,16.37
2023-02-09T15:08:23.974Z,14.57
2023-02-09T15:10:56.733Z,15.17
2023-02-09T15:13:23.808Z,15.13
2023-02-09T15:15:50.730Z,14.75
2023-02-09T15:18:26.003Z,16.38
2023-02-09T15:20:53.187Z,14.63
2023-02-09T15:23:20.244Z,14.70
2023-02-09T15:25:47.680Z,14.02
2023-02-09T15:28:34.280Z,15.20
2023-02-09T15:31:01.147Z,15.00
2023-02-09T15:33:28.902Z,16.10
2023-02-09T15:35:58.855Z,14.90
2023-02-09T15:38:27.545Z,13.57
2023-02-09T15:41:12.923Z,13.32
2023-02-09T15:43:58.510Z,12.55
2023-02-09T15:46:43.970Z,14.80
2023-02-09T15:49:10.778Z,12.40
2023-02-09T15:51:39.056Z,13.63
2023-02-09T15:54:28.195Z,13.60
2023-02-09T15:56:55.126Z,13.27
2023-02-09T15:59:23.529Z,13.75
2023-02-09T16:01:50.992Z,12.55
2023-02-09T16:04:18.196Z,15.10
2023-02-09T16:06:54.766Z,15.13
2023-02-09T16:09:27.682Z,12.15
2023-02-09T16:11:54.876Z,13.35
2023-02-09T16:14:23.814Z,12.27
2023-02-09T16:16:51.541Z,12.85
2023-02-09T16:19:18.981Z,13.75
2023-02-09T16:21:56.292Z,12.88
2023-02-09T16:24:31.438Z,13.23
2023-02-09T16:27:00.373Z,12.45
2023-02-09T16:29:27.550Z,13.30
2023-02-09T16:31:54.497Z,13.05
2023-02-09T16:34:21.381Z,14.93
2023-02-09T16:36:49.097Z,12.93
2023-02-09T16:39:21.625Z,13.10
2023-02-09T16:41:50.632Z,11.13
2023-02-09T16:44:19.068Z,11.32
2023-02-09T16:46:49.174Z,12.27
2023-02-09T16:49:41.624Z,11.77
2023-02-09T16:52:21.396Z,12.75
2023-02-09T16:54:54.604Z,11.48
2023-02-09T16:57:25.459Z,11.90
2023-02-09T16:59:53.997Z,12.52
2023-02-09T17:02:40.735Z,11.15
2023-02-09T17:05:32.754Z,12.38
2023-02-09T17:08:15.010Z,14.85
2023-02-09T17:10:41.952Z,12.63
2023-02-09T17:13:09.930Z,33.53
2023-02-09T17:15:54.169Z,29.48
2023-02-09T17:18:24.192Z,15.98
2023-02-09T17:20:57.870Z,12.20
2023-02-09T17:23:27.696Z,12.40
2023-02-09T17:25:55.288Z,12.38
2023-02-09T17:28:26.794Z,11.88
2023-02-09T17:30:58.153Z,13.38
2023-02-09T17:33:28.146Z,13.73
2023-02-09T17:36:28.438Z,16.73
2023-02-09T17:38:44.840Z,14.73
2023-02-09T17:41:29.727Z,15.40
2023-02-09T17:44:13.882Z,16.02
2023-02-09T17:46:45.011Z,16.55
2023-02-09T17:49:11.936Z,17.30
2023-02-09T17:51:41.813Z,16.70
2023-02-09T17:54:14.462Z,18.00
2023-02-09T17:56:42.178Z,18.70
2023-02-09T17:59:08.983Z,15.07
2023-02-09T18:01:42.096Z,16.73
2023-02-09T18:04:16.889Z,16.50
2023-02-09T18:06:43.778Z,23.13
2023-02-09T18:09:14.808Z,22.00
2023-02-09T18:12:02.945Z,19.33
2023-02-09T18:14:32.703Z,17.25
2023-02-09T18:17:00.428Z,16.33
2023-02-09T18:19:27.333Z,15.85
2023-02-09T18:22:00.379Z,15.05
2023-02-09T18:24:30.137Z,20.70
2023-02-09T18:26:57.322Z,22.95
2023-02-09T18:29:29.155Z,16.90
2023-02-09T18:31:57.967Z,14.00
2023-02-09T18:34:25.081Z,13.20
2023-02-09T18:36:51.842Z,12.98
2023-02-09T18:39:18.671Z,10.55
2023-02-09T18:41:47.295Z,12.40
2023-02-09T18:44:14.089Z,13.32
2023-02-09T18:46:42.726Z,12.80
2023-02-09T18:49:12.478Z,13.88
2023-02-09T18:51:39.217Z,13.20
2023-02-09T18:54:06.032Z,11.43
2023-02-09T18:56:32.795Z,11.50
2023-02-09T18:58:59.543Z,11.80
2023-02-09T19:01:26.456Z,12.95
2023-02-09T19:03:54.202Z,12.95
2023-02-09T19:06:22.075Z,11.75
2023-02-09T19:08:50.441Z,11.48
2023-02-09T19:11:19.770Z,12.60
2023-02-09T19:14:06.532Z,12.40
2023-02-09T19:16:34.005Z,13.00
2023-02-09T19:19:01.138Z,14.63
2023-02-09T19:21:28.544Z,14.90
2023-02-09T19:23:55.631Z,13.27
2023-02-09T19:26:22.407Z,14.00
2023-02-09T19:28:49.195Z,13.65
2023-02-09T19:31:17.273Z,16.10
2023-02-09T19:33:44.164Z,14.55
2023-02-09T19:36:10.960Z,16.20
2023-02-09T19:38:37.751Z,15.90
2023-02-09T19:41:11.766Z,14.70
2023-02-09T19:43:41.502Z,18.00
2023-02-09T19:46:10.244Z,19.65
2023-02-09T19:48:40.083Z,20.10
2023-02-09T19:51:07.884Z,16.88
2023-02-09T19:53:34.841Z,16.05
2023-02-09T19:56:01.951Z,15.90
2023-02-09T19:58:29.029Z,14.70
2023-02-09T20:00:56.123Z,15.05
2023-02-09T20:03:23.894Z,15.57
2023-02-09T20:05:51.264Z,15.35
2023-02-09T20:08:19.643Z,13.55
2023-02-09T20:10:46.968Z,14.73
2023-02-09T20:13:14.312Z,14.45
2023-02-09T20:15:42.823Z,12.68
2023-02-09T20:18:10.875Z,13.50
2023-02-09T20:20:42.183Z,14.15
2023-02-09T20:23:09.973Z,12.25
2023-02-09T20:25:39.775Z,15.13
2023-02-09T20:28:06.579Z,14.73
2023-02-09T20:30:33.418Z,13.70
2023-02-09T20:33:00.195Z,12.85
2023-02-09T20:35:27.093Z,14.25
2023-02-09T20:37:54.105Z,13.55
2023-02-09T20:40:21.631Z,13.82
2023-02-09T20:43:07.088Z,15.13
2023-02-09T20:45:52.834Z,13.55
2023-02-09T20:48:20.066Z,13.02
2023-02-09T20:50:47.200Z,15.05
2023-02-09T20:53:14.227Z,14.88
2023-02-09T20:55:41.097Z,15.70
2023-02-09T20:58:09.211Z,14.80
2023-02-09T21:00:36.086Z,15.05
2023-02-09T21:03:02.912Z,15.07
2023-02-09T21:05:29.881Z,16.45
2023-02-09T21:07:56.637Z,17.90
2023-02-09T21:10:23.573Z,15.75
2023-02-09T21:12:50.456Z,17.45
2023-02-09T21:15:17.440Z,15.98
2023-02-09T21:17:48.395Z,16.80
2023-02-09T21:20:16.257Z,17.40
2023-02-09T21:22:43.476Z,17.88
2023-02-09T21:25:10.495Z,17.92
2023-02-09T21:27:37.312Z,19.63
2023-02-09T21:30:04.744Z,17.67
2023-02-09T21:32:34.878Z,18.92
2023-02-09T21:35:01.855Z,23.73
2023-02-09T21:37:32.311Z,23.65
2023-02-09T21:40:02.956Z,23.80
2023-02-09T21:42:31.438Z,23.08
2023-02-09T21:44:59.628Z,22.42
2023-02-09T21:47:31.804Z,21.50
2023-02-09T21:49:59.010Z,23.05
2023-02-09T21:52:26.304Z,21.05
2023-02-09T21:54:53.959Z,20.10
2023-02-09T21:57:21.521Z,20.35
2023-02-09T21:59:48.428Z,21.83
2023-02-09T22:02:17.418Z,22.83
2023-02-09T22:04:45.637Z,24.20
2023-02-09T22:07:13.518Z,23.02
2023-02-09T22:09:40.590Z,23.10
2023-02-09T22:12:07.880Z,20.98
2023-02-09T22:14:34.763Z,19.55
2023-02-09T22:17:01.553Z,17.77
2023-02-09T22:19:28.316Z,17.25
2023-02-09T22:21:57.673Z,17.27
2023-02-09T22:24:25.180Z,16.60
2023-02-09T22:26:52.059Z,16.83
2023-02-09T22:29:19.388Z,17.67
2023-02-09T22:31:46.558Z,17.17
2023-02-09T22:34:13.537Z,15.68
2023-02-09T22:36:40.282Z,16.83
2023-02-09T22:39:07.435Z,15.40
2023-02-09T22:41:34.856Z,15.80
2023-02-09T22:44:05.547Z,14.95
2023-02-09T22:46:35.221Z,15.70
2023-02-09T22:49:08.626Z,16.30
2023-02-09T22:51:36.736Z,15.95
2023-02-09T22:54:07.984Z,15.95
2023-02-09T22:56:35.004Z,16.60
2023-02-09T22:59:02.265Z,16.13
2023-02-09T23:01:29.622Z,17.85
2023-02-09T23:03:57.377Z,16.65
2023-02-09T23:06:27.383Z,17.25
2023-02-09T23:08:59.081Z,17.70
2023-02-09T23:11:26.390Z,18.30
2023-02-09T23:14:08.458Z,18.33
2023-02-09T23:16:37.049Z,15.27
2023-02-09T23:19:07.102Z,17.60
2023-02-09T23:21:42.509Z,16.98
2023-02-09T23:24:10.205Z,16.52
2023-02-09T23:26:37.623Z,18.75
2023-02-09T23:29:07.124Z,16.83
2023-02-09T23:31:34.802Z,17.10
2023-02-09T23:34:01.640Z,19.00
2023-02-09T23:36:30.957Z,19.10
2023-02-09T23:39:03.186Z,19.27
2023-02-09T23:41:30.088Z,18.10
2023-02-09T23:43:57.391Z,17.52
2023-02-09T23:46:28.432Z,17.27
2023-02-09T23:48:56.271Z,18.63
2023-02-09T23:51:26.745Z,17.90
2023-02-09T23:53:54.997Z,17.00
2023-02-09T23:56:22.766Z,18.23
2023-02-09T23:58:51.903Z,16.75
